createdAt,value
2018-04-06T00:00:14.343Z,71.21
2018-04-06T00:02:42.781Z,71.39
2018-04-06T00:05:11.189Z,71.53
2018-04-06T00:07:39.591Z,71.48
2018-04-06T00:10:08.066Z,71.59
2018-04-06T00:12:36.470Z,71.73
2018-04-06T00:15:04.904Z,71.80
2018-04-06T00:17:33.349Z,71.62
2018-04-06T00:20:01.757Z,71.69
2018-04-06T00:22:30.158Z,71.87
2018-04-06T00:24:58.608Z,72.01
2018-04-06T00:27:27.002Z,72.03
2018-04-06T00:29:55.405Z,72.25
2018-04-06T00:32:23.866Z,73.36
2018-04-06T00:34:52.261Z,72.95
2018-04-06T00:37:20.671Z,73.35
2018-04-06T00:39:49.121Z,73.00
2018-04-06T00:42:17.525Z,72.98
2018-04-06T00:44:45.929Z,73.80
2018-04-06T00:47:14.369Z,73.48
2018-04-06T00:49:42.782Z,73.74
2018-04-06T00:52:11.186Z,72.98
2018-04-06T00:54:39.645Z,73.54
2018-04-06T00:57:08.048Z,73.10
2018-04-06T00:59:36.445Z,72.57
2018-04-06T01:02:04.885Z,73.19
2018-04-06T01:04:33.295Z,73.19
2018-04-06T01:07:01.702Z,74.27
2018-04-06T01:09:30.146Z,74.24
2018-04-06T01:11:58.566Z,74.46
2018-04-06T01:14:26.972Z,74.78
2018-04-06T01:16:55.429Z,74.57
2018-04-06T01:19:23.833Z,74.48
2018-04-06T01:21:52.243Z,74.39
2018-04-06T01:24:20.701Z,74.32
2018-04-06T01:26:49.119Z,74.52
2018-04-06T01:29:17.537Z,74.68
2018-04-06T01:31:45.998Z,74.84
2018-04-06T01:34:14.398Z,74.51
2018-04-06T01:36:42.810Z,74.15
2018-04-06T01:39:11.250Z,74.12
2018-04-06T01:41:39.654Z,73.77
2018-04-06T01:44:08.061Z,73.81
2018-04-06T01:46:36.519Z,74.05
2018-04-06T01:49:04.928Z,74.46
2018-04-06T01:51:33.337Z,74.96
2018-04-06T01:54:01.784Z,74.44
2018-04-06T01:56:30.190Z,74.27
2018-04-06T01:58:58.597Z,74.23
2018-04-06T02:01:27.045Z,74.48
2018-04-06T02:03:55.445Z,74.23
2018-04-06T02:06:23.850Z,74.87
2018-04-06T02:08:52.305Z,74.92
2018-04-06T02:11:20.730Z,74.81
2018-04-06T02:13:49.126Z,75.27
2018-04-06T02:16:17.571Z,75.36
2018-04-06T02:18:45.978Z,75.29
2018-04-06T02:21:14.377Z,74.58
2018-04-06T02:23:42.821Z,74.61
2018-04-06T02:26:11.221Z,75.14
2018-04-06T02:28:39.639Z,75.72
2018-04-06T02:31:08.084Z,75.71
2018-04-06T02:33:36.503Z,75.26
2018-04-06T02:36:04.938Z,75.10
2018-04-06T02:38:33.396Z,74.89
2018-04-06T02:41:01.835Z,74.72
2018-04-06T02:43:30.242Z,74.48
2018-04-06T02:45:58.691Z,75.06
2018-04-06T02:48:27.102Z,75.35
2018-04-06T02:50:55.517Z,75.63
2018-04-06T02:53:23.974Z,75.81
2018-04-06T02:55:52.387Z,75.81
2018-04-06T02:58:20.800Z,75.56
2018-04-06T03:00:49.259Z,75.87
2018-04-06T03:03:17.667Z,75.75
2018-04-06T03:05:46.066Z,75.82
2018-04-06T03:08:14.514Z,76.18
2018-04-06T03:10:42.985Z,76.20
2018-04-06T03:13:11.397Z,75.96
2018-04-06T03:15:39.833Z,76.06
2018-04-06T03:18:08.229Z,75.88
2018-04-06T03:20:36.633Z,76.20
2018-04-06T03:23:05.082Z,76.42
2018-04-06T03:25:33.490Z,75.64
2018-04-06T03:28:01.885Z,75.40
2018-04-06T03:30:30.335Z,75.30
2018-04-06T03:32:58.742Z,75.61
2018-04-06T03:35:27.138Z,75.85
2018-04-06T03:37:55.585Z,76.27
2018-04-06T03:40:23.988Z,76.21
2018-04-06T03:42:52.389Z,76.15
2018-04-06T03:45:20.842Z,76.07
2018-04-06T03:47:49.246Z,76.52
2018-04-06T03:50:17.649Z,76.59
2018-04-06T03:52:46.107Z,76.67
2018-04-06T03:55:14.514Z,76.97
2018-04-06T03:57:42.926Z,77.02
2018-04-06T04:00:11.373Z,76.69
2018-04-06T04:02:39.770Z,76.98
2018-04-06T04:05:08.176Z,77.02
2018-04-06T04:07:36.635Z,77.05
2018-04-06T04:10:05.066Z,77.22
2018-04-06T04:12:33.474Z,77.31
2018-04-06T04:15:01.925Z,77.60
2018-04-06T04:17:30.325Z,77.61
2018-04-06T04:19:58.737Z,77.86
2018-04-06T04:22:27.193Z,77.73
2018-04-06T04:24:55.599Z,77.81
2018-04-06T04:27:24.005Z,77.92
2018-04-06T04:29:52.463Z,77.92
2018-04-06T04:32:20.868Z,78.01
2018-04-06T04:34:49.279Z,78.08
2018-04-06T04:37:17.733Z,78.50
2018-04-06T04:39:46.151Z,78.32
2018-04-06T04:42:14.573Z,78.31
2018-04-06T04:44:43.022Z,78.53
2018-04-06T04:47:11.433Z,78.59
2018-04-06T04:49:39.849Z,78.85
2018-04-06T04:52:08.320Z,79.36
2018-04-06T04:54:36.729Z,79.30
2018-04-06T04:57:05.145Z,79.33
2018-04-06T04:59:33.597Z,79.47
2018-04-06T05:02:02.015Z,79.50
2018-04-06T05:04:30.422Z,79.44
2018-04-06T05:06:58.872Z,79.42
2018-04-06T05:09:27.281Z,79.13
2018-04-06T05:11:55.690Z,79.25
2018-04-06T05:14:24.141Z,79.10
2018-04-06T05:16:52.554Z,78.97
2018-04-06T05:19:20.965Z,78.76
2018-04-06T05:21:49.415Z,78.62
2018-04-06T05:24:17.838Z,78.43
2018-04-06T05:26:46.247Z,78.56
2018-04-06T05:29:14.698Z,78.37
2018-04-06T05:31:43.120Z,78.58
2018-04-06T05:34:11.532Z,78.45
2018-04-06T05:36:39.998Z,78.59
2018-04-06T05:39:08.414Z,78.41
2018-04-06T05:41:36.826Z,78.51
2018-04-06T05:44:05.287Z,78.41
2018-04-06T05:46:33.694Z,78.34
2018-04-06T05:49:02.162Z,78.11
2018-04-06T05:51:30.610Z,77.81
2018-04-06T05:53:59.019Z,77.85
2018-04-06T05:56:27.425Z,77.69
2018-04-06T05:58:55.873Z,77.46
2018-04-06T06:01:24.278Z,77.39
2018-04-06T06:03:52.690Z,77.16
2018-04-06T06:06:21.139Z,77.06
2018-04-06T06:08:50.569Z,76.75
2018-04-06T06:11:18.978Z,76.39
2018-04-06T06:13:47.436Z,76.46
2018-04-06T06:16:15.853Z,76.09
2018-04-06T06:18:44.251Z,75.97
2018-04-06T06:21:12.706Z,75.66
2018-04-06T06:23:41.121Z,75.65
2018-04-06T06:26:09.527Z,75.53
2018-04-06T06:28:37.985Z,75.29
2018-04-06T06:31:06.386Z,74.80
2018-04-06T06:33:34.793Z,74.79
2018-04-06T06:36:03.255Z,74.44
2018-04-06T06:38:31.674Z,74.26
2018-04-06T06:41:00.082Z,73.85
2018-04-06T06:43:28.534Z,73.39
2018-04-06T06:45:56.945Z,73.87
2018-04-06T06:48:25.361Z,74.19
2018-04-06T06:50:53.850Z,73.59
2018-04-06T06:53:22.270Z,73.34
2018-04-06T06:55:50.704Z,73.02
2018-04-06T06:58:19.351Z,72.75
2018-04-06T07:00:47.772Z,72.04
2018-04-06T07:03:16.204Z,72.25
2018-04-06T07:05:44.654Z,72.26
2018-04-06T07:08:13.069Z,72.61
2018-04-06T07:10:41.486Z,71.98
2018-04-06T07:13:09.935Z,70.66
2018-04-06T07:15:38.366Z,70.80
2018-04-06T07:18:06.784Z,71.02
2018-04-06T07:20:35.249Z,69.66
2018-04-06T07:23:03.658Z,69.68
2018-04-06T07:25:32.073Z,70.53
2018-04-06T07:28:00.521Z,69.34
2018-04-06T07:30:28.931Z,69.91
2018-04-06T07:32:57.345Z,69.49
2018-04-06T07:35:25.801Z,68.83
2018-04-06T07:37:54.215Z,68.35
2018-04-06T07:40:22.626Z,68.04
2018-04-06T07:42:51.077Z,67.68
2018-04-06T07:45:19.536Z,68.39
2018-04-06T07:47:47.946Z,67.80
2018-04-06T07:50:16.398Z,66.16
2018-04-06T07:52:44.814Z,66.18
2018-04-06T07:55:13.217Z,65.75
2018-04-06T07:57:41.681Z,65.83
2018-04-06T08:00:10.087Z,65.53
2018-04-06T08:02:38.508Z,65.16
2018-04-06T08:05:06.967Z,65.89
2018-04-06T08:07:35.386Z,65.56
2018-04-06T08:10:03.868Z,63.76
2018-04-06T08:12:32.322Z,65.50
2018-04-06T08:15:00.743Z,63.33
2018-04-06T08:17:29.150Z,61.86
2018-04-06T08:19:57.618Z,62.53
2018-04-06T08:22:26.023Z,62.93
2018-04-06T08:24:54.439Z,63.74
2018-04-06T08:27:22.897Z,61.34
2018-04-06T08:29:52.729Z,61.27
2018-04-06T08:32:21.139Z,59.19
2018-04-06T08:34:49.598Z,59.99
2018-04-06T08:37:18.006Z,58.20
2018-04-06T08:39:46.416Z,57.55
2018-04-06T08:42:14.862Z,56.92
2018-04-06T08:44:43.269Z,56.66
2018-04-06T08:47:11.678Z,56.07
2018-04-06T08:49:40.133Z,58.29
2018-04-06T08:52:08.551Z,57.22
2018-04-06T08:54:37.018Z,57.06
2018-04-06T08:57:05.470Z,57.60
2018-04-06T08:59:33.913Z,57.96
2018-04-06T09:02:02.360Z,57.03
2018-04-06T09:04:30.812Z,57.38
2018-04-06T09:06:59.214Z,55.18
2018-04-06T09:09:27.634Z,55.17
2018-04-06T09:11:56.129Z,53.88
2018-04-06T09:14:24.541Z,53.67
2018-04-06T09:16:52.978Z,53.36
2018-04-06T09:19:21.466Z,53.04
2018-04-06T09:21:49.881Z,52.65
2018-04-06T09:24:18.304Z,54.66
2018-04-06T09:26:46.798Z,50.17
2018-04-06T09:29:15.206Z,50.80
2018-04-06T09:31:43.610Z,46.27
2018-04-06T09:34:12.065Z,45.27
2018-04-06T09:36:40.474Z,46.33
2018-04-06T09:39:08.893Z,45.80
2018-04-06T09:41:37.348Z,46.56
2018-04-06T09:44:05.946Z,46.33
2018-04-06T09:46:34.389Z,45.01
2018-04-06T09:49:02.842Z,42.95
2018-04-06T09:51:31.254Z,45.42
2018-04-06T09:53:59.658Z,45.64
2018-04-06T09:56:28.109Z,47.44
2018-04-06T09:58:56.521Z,45.71
2018-04-06T10:01:39.846Z,44.42
2018-04-06T10:04:08.258Z,42.05
2018-04-06T10:06:36.679Z,44.49
2018-04-06T10:09:05.949Z,43.00
2018-04-06T10:11:34.354Z,41.99
2018-04-06T10:14:02.762Z,41.51
2018-04-06T10:16:31.209Z,42.01
2018-04-06T10:18:59.617Z,42.59
2018-04-06T10:21:28.023Z,41.50
2018-04-06T10:23:56.466Z,42.64
2018-04-06T10:26:24.875Z,42.91
2018-04-06T10:28:53.289Z,44.29
2018-04-06T10:31:21.746Z,42.76
2018-04-06T10:33:50.151Z,42.48
2018-04-06T10:36:18.557Z,43.14
2018-04-06T10:38:47.017Z,42.18
2018-04-06T10:41:15.427Z,39.70
2018-04-06T10:43:43.863Z,39.31
2018-04-06T10:46:12.322Z,39.87
2018-04-06T10:48:40.752Z,41.77
2018-04-06T10:51:09.167Z,40.41
2018-04-06T10:53:37.622Z,41.31
2018-04-06T10:56:06.025Z,38.84
2018-04-06T10:58:34.501Z,38.45
2018-04-06T11:01:02.918Z,36.03
2018-04-06T11:03:31.318Z,39.17
2018-04-06T11:05:59.728Z,38.68
2018-04-06T11:08:28.185Z,37.28
2018-04-06T11:10:56.607Z,39.26
2018-04-06T11:13:25.009Z,37.94
2018-04-06T11:15:53.460Z,38.14
2018-04-06T11:18:21.861Z,36.31
2018-04-06T11:20:50.297Z,35.12
2018-04-06T11:23:18.747Z,36.10
2018-04-06T11:25:47.245Z,36.52
2018-04-06T11:28:15.710Z,33.79
2018-04-06T11:30:44.167Z,33.85
2018-04-06T11:33:12.578Z,34.32
2018-04-06T11:35:40.985Z,35.17
2018-04-06T11:38:09.449Z,34.52
2018-04-06T11:40:37.861Z,34.45
2018-04-06T11:43:06.270Z,34.26
2018-04-06T11:45:34.730Z,35.93
2018-04-06T11:48:03.135Z,36.43
2018-04-06T11:50:31.534Z,36.49
2018-04-06T11:52:59.983Z,35.04
2018-04-06T11:55:28.394Z,35.61
2018-04-06T11:57:56.798Z,34.90
2018-04-06T12:00:25.246Z,36.53
2018-04-06T12:02:53.666Z,35.50
2018-04-06T12:05:22.166Z,34.51
2018-04-06T12:07:50.682Z,35.55
2018-04-06T12:10:19.078Z,36.84
2018-04-06T12:12:47.503Z,37.33
2018-04-06T12:15:15.950Z,37.55
2018-04-06T12:17:44.365Z,37.49
2018-04-06T12:20:12.775Z,36.81
2018-04-06T12:22:41.222Z,38.43
2018-04-06T12:25:09.629Z,35.98
2018-04-06T12:27:38.042Z,36.76
2018-04-06T12:30:06.485Z,36.80
2018-04-06T12:32:34.897Z,38.06
2018-04-06T12:35:03.322Z,37.31
2018-04-06T12:37:31.842Z,37.30
2018-04-06T12:40:00.474Z,37.31
2018-04-06T12:42:28.914Z,37.03
2018-04-06T12:44:57.362Z,37.59
2018-04-06T12:47:25.766Z,37.81
2018-04-06T12:49:54.173Z,38.20
2018-04-06T12:52:22.634Z,37.05
2018-04-06T12:54:51.044Z,38.08
2018-04-06T12:57:19.450Z,38.78
2018-04-06T12:59:47.902Z,39.35
2018-04-06T13:02:16.315Z,39.10
2018-04-06T13:04:44.732Z,38.63
2018-04-06T13:07:13.174Z,39.06
2018-04-06T13:09:41.595Z,39.50
2018-04-06T13:12:10.002Z,38.36
2018-04-06T13:14:38.474Z,39.35
2018-04-06T13:17:06.882Z,39.15
2018-04-06T13:19:35.291Z,39.23
2018-04-06T13:22:03.763Z,39.03
2018-04-06T13:24:32.173Z,39.09
2018-04-06T13:27:00.585Z,39.17
2018-04-06T13:29:29.033Z,39.07
2018-04-06T13:31:57.442Z,38.35
2018-04-06T13:34:25.857Z,40.08
2018-04-06T13:36:54.319Z,38.55
2018-04-06T13:39:22.722Z,38.09
2018-04-06T13:41:51.130Z,38.62
2018-04-06T13:44:19.597Z,38.53
2018-04-06T13:46:48.011Z,38.81
2018-04-06T13:49:16.441Z,38.89
2018-04-06T13:51:44.910Z,38.84
2018-04-06T13:54:13.317Z,39.12
2018-04-06T13:56:41.731Z,39.65
2018-04-06T13:59:10.194Z,39.87
2018-04-06T14:01:38.597Z,40.21
2018-04-06T14:04:07.002Z,39.58
2018-04-06T14:06:35.723Z,39.75
2018-04-06T14:09:04.119Z,40.38
2018-04-06T14:11:32.527Z,39.59
2018-04-06T14:14:00.974Z,40.05
2018-04-06T14:16:29.382Z,39.57
2018-04-06T14:18:57.806Z,39.27
2018-04-06T14:21:26.257Z,39.31
2018-04-06T14:23:54.670Z,39.71
2018-04-06T14:26:23.081Z,38.99
2018-04-06T14:28:51.530Z,38.99
2018-04-06T14:31:20.024Z,38.40
2018-04-06T14:33:48.429Z,39.00
2018-04-06T14:36:16.881Z,39.06
2018-04-06T14:38:45.294Z,39.33
2018-04-06T14:41:13.711Z,40.21
2018-04-06T14:43:42.174Z,39.69
2018-04-06T14:46:10.649Z,39.52
2018-04-06T14:48:39.362Z,40.41
2018-04-06T14:51:07.819Z,39.31
2018-04-06T14:53:36.225Z,40.31
2018-04-06T14:56:04.645Z,41.30
2018-04-06T14:58:33.093Z,40.14
2018-04-06T15:01:01.510Z,41.31
2018-04-06T15:03:29.928Z,41.82
2018-04-06T15:05:58.382Z,40.86
2018-04-06T15:08:26.782Z,41.67
2018-04-06T15:10:55.193Z,41.64
2018-04-06T15:13:23.642Z,41.63
2018-04-06T15:15:52.054Z,41.35
2018-04-06T15:18:20.466Z,41.60
2018-04-06T15:20:48.930Z,40.69
2018-04-06T15:23:17.349Z,41.65
2018-04-06T15:25:45.769Z,41.20
2018-04-06T15:28:14.245Z,41.12
2018-04-06T15:30:42.650Z,41.44
2018-04-06T15:33:11.053Z,41.30
2018-04-06T15:35:39.513Z,41.92
2018-04-06T15:38:07.926Z,42.32
2018-04-06T15:40:36.334Z,41.73
2018-04-06T15:43:05.027Z,40.44
2018-04-06T15:45:33.454Z,40.71
2018-04-06T15:48:01.858Z,41.56
2018-04-06T15:50:30.317Z,41.36
2018-04-06T15:52:58.721Z,41.69
2018-04-06T15:55:27.131Z,40.31
2018-04-06T15:57:55.586Z,40.20
2018-04-06T16:00:24.010Z,41.38
2018-04-06T16:02:52.434Z,40.39
2018-04-06T16:05:20.940Z,41.17
2018-04-06T16:07:49.386Z,41.27
2018-04-06T16:10:17.838Z,41.39
2018-04-06T16:12:46.302Z,42.58
2018-04-06T16:15:14.730Z,42.27
2018-04-06T16:17:43.138Z,41.40
2018-04-06T16:20:11.647Z,42.68
2018-04-06T16:22:40.058Z,42.97
2018-04-06T16:25:08.466Z,42.78
2018-04-06T16:27:36.909Z,41.81
2018-04-06T16:30:05.309Z,42.37
2018-04-06T16:32:33.732Z,42.40
2018-04-06T16:35:02.185Z,42.70
2018-04-06T16:37:30.594Z,42.43
2018-04-06T16:39:59.025Z,43.34
2018-04-06T16:42:27.501Z,43.66
2018-04-06T16:44:55.910Z,44.82
2018-04-06T16:47:24.318Z,44.93
2018-04-06T16:49:52.786Z,46.12
2018-04-06T16:52:21.305Z,45.29
2018-04-06T16:54:49.742Z,45.14
2018-04-06T16:57:18.210Z,45.55
2018-04-06T16:59:46.630Z,46.45
2018-04-06T17:02:15.039Z,45.97
2018-04-06T17:04:43.477Z,44.94
2018-04-06T17:07:11.886Z,45.61
2018-04-06T17:09:40.304Z,45.55
2018-04-06T17:12:08.753Z,46.68
2018-04-06T17:14:37.162Z,46.91
2018-04-06T17:17:05.565Z,46.86
2018-04-06T17:19:34.025Z,46.48
2018-04-06T17:22:02.430Z,47.12
2018-04-06T17:24:30.874Z,47.22
2018-04-06T17:26:59.329Z,47.59
2018-04-06T17:29:27.738Z,47.98
2018-04-06T17:31:56.142Z,47.39
2018-04-06T17:34:24.594Z,47.64
2018-04-06T17:36:53.018Z,47.86
2018-04-06T17:39:21.417Z,48.08
2018-04-06T17:41:49.874Z,48.34
2018-04-06T17:44:18.278Z,48.59
2018-04-06T17:46:46.683Z,48.78
2018-04-06T17:49:15.134Z,48.99
2018-04-06T17:51:43.537Z,49.36
2018-04-06T17:54:12.078Z,49.76
2018-04-06T17:56:40.522Z,50.06
2018-04-06T17:59:08.925Z,50.18
2018-04-06T18:01:37.338Z,50.39
2018-04-06T18:04:05.811Z,50.70
2018-04-06T18:06:34.292Z,50.81
2018-04-06T18:09:02.698Z,51.30
2018-04-06T18:11:31.141Z,51.03
2018-04-06T18:14:00.474Z,50.78
2018-04-06T18:16:28.889Z,50.42
2018-04-06T18:18:57.373Z,50.37
2018-04-06T18:21:25.785Z,50.05
2018-04-06T18:23:54.193Z,49.84
2018-04-06T18:26:22.668Z,50.30
2018-04-06T18:28:51.102Z,50.51
2018-04-06T18:31:19.530Z,50.64
2018-04-06T18:33:47.978Z,51.19
2018-04-06T18:36:16.391Z,51.35
2018-04-06T18:38:44.834Z,51.70
2018-04-06T18:41:13.278Z,51.44
2018-04-06T18:43:41.723Z,51.75
2018-04-06T18:46:10.127Z,51.56
2018-04-06T18:48:38.594Z,51.65
2018-04-06T18:51:06.995Z,51.75
2018-04-06T18:53:35.398Z,52.11
2018-04-06T18:56:03.880Z,52.25
2018-04-06T18:58:32.307Z,52.26
2018-04-06T19:01:00.747Z,52.47
2018-04-06T19:03:29.197Z,52.83
2018-04-06T19:05:57.598Z,52.81
2018-04-06T19:08:26.022Z,52.70
2018-04-06T19:10:54.481Z,52.07
2018-04-06T19:13:22.886Z,51.72
2018-04-06T19:15:51.290Z,52.25
2018-04-06T19:18:19.758Z,51.77
2018-04-06T19:20:48.153Z,51.47
2018-04-06T19:23:16.557Z,51.42
2018-04-06T19:25:45.022Z,51.61
2018-04-06T19:28:13.418Z,51.67
2018-04-06T19:30:41.821Z,51.50
2018-04-06T19:33:10.261Z,51.79
2018-04-06T19:35:38.664Z,51.64
2018-04-06T19:38:07.094Z,52.02
2018-04-06T19:40:35.544Z,52.17
2018-04-06T19:43:03.941Z,52.60
2018-04-06T19:45:32.346Z,53.36
2018-04-06T19:48:00.789Z,53.71
2018-04-06T19:50:29.193Z,53.78
2018-04-06T19:52:57.597Z,53.79
2018-04-06T19:55:26.033Z,53.99
2018-04-06T19:57:54.437Z,53.58
2018-04-06T20:00:22.854Z,53.92
2018-04-06T20:02:51.298Z,54.25
2018-04-06T20:05:19.693Z,54.50
2018-04-06T20:07:48.099Z,54.62
2018-04-06T20:10:16.545Z,54.91
2018-04-06T20:12:44.964Z,55.54
2018-04-06T20:15:13.393Z,55.96
2018-04-06T20:17:41.850Z,56.01
2018-04-06T20:20:10.255Z,56.40
2018-04-06T20:22:38.674Z,56.68
2018-04-06T20:25:07.149Z,56.50
2018-04-06T20:27:35.571Z,56.69
2018-04-06T20:30:04.001Z,56.16
2018-04-06T20:32:32.457Z,56.27
2018-04-06T20:35:00.878Z,56.05
2018-04-06T20:37:29.301Z,56.16
2018-04-06T20:39:57.778Z,56.37
2018-04-06T20:42:26.186Z,56.46
2018-04-06T20:44:54.586Z,56.51
2018-04-06T20:47:23.134Z,56.69
2018-04-06T20:49:51.533Z,56.66
2018-04-06T20:52:19.940Z,56.83
2018-04-06T20:54:48.386Z,56.77
2018-04-06T20:57:16.789Z,56.87
2018-04-06T20:59:45.189Z,57.00
2018-04-06T21:02:13.637Z,57.16
2018-04-06T21:04:42.041Z,57.28
2018-04-06T21:07:10.434Z,57.53
2018-04-06T21:09:38.882Z,57.64
2018-04-06T21:12:07.298Z,57.95
2018-04-06T21:14:35.702Z,58.07
2018-04-06T21:17:04.154Z,58.31
2018-04-06T21:19:32.556Z,58.33
2018-04-06T21:22:00.973Z,58.46
2018-04-06T21:24:29.418Z,58.76
2018-04-06T21:26:57.834Z,58.74
2018-04-06T21:29:26.238Z,58.80
2018-04-06T21:31:54.693Z,58.76
2018-04-06T21:34:23.101Z,59.08
2018-04-06T21:36:51.503Z,59.01
2018-04-06T21:39:19.950Z,58.97
2018-04-06T21:41:48.354Z,59.09
2018-04-06T21:44:16.757Z,59.41
2018-04-06T21:46:45.204Z,59.45
2018-04-06T21:49:13.602Z,59.67
2018-04-06T21:51:42.007Z,59.35
2018-04-06T21:54:10.454Z,59.29
2018-04-06T21:56:38.873Z,59.23
2018-04-06T21:59:07.294Z,59.40
2018-04-06T22:01:35.768Z,59.53
2018-04-06T22:04:04.188Z,59.62
2018-04-06T22:06:32.589Z,59.69
2018-04-06T22:09:01.021Z,59.89
2018-04-06T22:11:29.414Z,59.91
2018-04-06T22:13:57.838Z,60.07
2018-04-06T22:16:26.297Z,59.99
2018-04-06T22:18:54.697Z,60.03
2018-04-06T22:21:23.102Z,60.04
2018-04-06T22:23:51.561Z,60.40
2018-04-06T22:26:19.965Z,60.52
2018-04-06T22:28:48.366Z,60.19
2018-04-06T22:31:16.829Z,60.02
2018-04-06T22:33:45.230Z,60.21
2018-04-06T22:36:13.632Z,60.13
2018-04-06T22:38:42.098Z,60.33
2018-04-06T22:41:10.498Z,60.33
2018-04-06T22:43:38.921Z,60.37
2018-04-06T22:46:07.365Z,60.34
2018-04-06T22:48:35.770Z,60.21
2018-04-06T22:51:04.181Z,60.41
2018-04-06T22:53:32.618Z,60.37
2018-04-06T22:56:01.018Z,60.31
2018-04-06T22:58:29.417Z,60.49
2018-04-06T23:00:57.875Z,60.54
2018-04-06T23:03:26.278Z,60.23
2018-04-06T23:05:54.677Z,60.30
2018-04-06T23:08:23.124Z,60.22
2018-04-06T23:10:51.525Z,60.35
2018-04-06T23:13:19.923Z,60.22
2018-04-06T23:15:48.357Z,60.03
2018-04-06T23:18:16.757Z,60.16
2018-04-06T23:20:45.159Z,60.05
2018-04-06T23:23:13.598Z,60.10
2018-04-06T23:25:42.005Z,60.02
2018-04-06T23:28:10.410Z,59.91
2018-04-06T23:30:38.854Z,59.38
2018-04-06T23:33:07.249Z,59.85
2018-04-06T23:35:35.753Z,59.93
2018-04-06T23:38:04.196Z,60.34
2018-04-06T23:40:32.605Z,60.56
2018-04-06T23:43:01.006Z,60.78
2018-04-06T23:45:29.461Z,60.81
2018-04-06T23:47:57.874Z,60.95
2018-04-06T23:50:26.269Z,60.65
2018-04-06T23:52:54.709Z,60.78
2018-04-06T23:55:23.187Z,60.90
2018-04-06T23:57:51.589Z,60.78
